Time;durP1;ratioP1;P1;durP2;ratioP2;P2;SDS_P1;SDS_P2;PMS_P1;PMS_P2;Temp;Humidity;BMP_temperature;BMP_pressure;BME280_temperature;BME280_humidity;BME280_pressure;Samples;Min_cycle;Max_cycle;Signal;HPM_P1;HPM_P2
2023/07/18 00:02:07;;;;;;;5.63;3.72;;;;;;;14.54;74.93;99415.50;5028064;28;20132;-81
2023/07/18 00:04:32;;;;;;;9.65;3.78;;;;;;;14.21;75.86;99406.69;5026050;28;20455;-81
2023/07/18 00:06:58;;;;;;;4.80;2.92;;;;;;;14.17;75.98;99399.41;5022993;28;20049;-81
2023/07/18 00:09:24;;;;;;;6.47;3.67;;;;;;;14.00;77.20;99399.53;5005839;28;20486;-82
2023/07/18 00:11:50;;;;;;;6.70;3.85;;;;;;;14.03;76.62;99411.63;5034257;28;20032;-82
2023/07/18 00:14:15;;;;;;;4.45;2.65;;;;;;;14.44;74.37;99400.13;5025079;28;20932;-82
2023/07/18 00:16:44;;;;;;;4.78;3.40;;;;;;;14.14;75.22;99413.31;5048200;28;20037;-81
2023/07/18 00:19:11;;;;;;;7.28;3.70;;;;;;;14.37;74.66;99412.19;5010982;28;20045;-81
2023/07/18 00:21:38;;;;;;;4.15;2.88;;;;;;;14.18;75.41;99422.47;5031316;28;20037;-81
2023/07/18 00:24:04;;;;;;;4.82;2.83;;;;;;;14.48;74.09;99405.81;5027475;28;20042;-81
2023/07/18 00:26:30;;;;;;;3.30;2.60;;;;;;;15.15;70.60;99387.00;5019406;28;20038;-81
2023/07/18 00:28:55;;;;;;;4.38;3.05;;;;;;;15.34;70.28;99415.03;5031278;28;20025;-82
2023/07/18 00:31:21;;;;;;;4.43;2.55;;;;;;;15.85;67.44;99375.56;5021861;28;20056;-82
2023/07/18 00:33:46;;;;;;;3.67;2.70;;;;;;;15.50;69.34;99412.16;5024958;28;20041;-81
2023/07/18 00:36:12;;;;;;;8.52;3.88;;;;;;;15.28;70.53;99419.59;5043334;28;20049;-81
2023/07/18 00:38:38;;;;;;;9.32;3.55;;;;;;;14.53;73.72;99409.31;5030560;28;20043;-81
2023/07/18 00:41:04;;;;;;;10.32;4.55;;;;;;;14.68;72.88;99406.69;5031752;28;20052;-81
2023/07/18 00:43:33;;;;;;;6.15;4.43;;;;;;;14.32;75.26;99402.22;5026106;28;20048;-81
2023/07/18 00:45:59;;;;;;;8.45;3.33;;;;;;;14.67;72.59;99397.03;5013778;28;20034;-81
2023/07/18 00:48:27;;;;;;;3.90;3.03;;;;;;;15.68;69.42;99398.16;5034475;28;20029;-81
2023/07/18 00:50:53;;;;;;;6.13;4.05;;;;;;;15.35;70.36;99413.97;5008490;28;20044;-81
2023/07/18 00:53:21;;;;;;;4.68;3.33;;;;;;;15.70;69.05;99411.38;5014688;28;20495;-82
2023/07/18 00:55:47;;;;;;;4.13;2.72;;;;;;;16.12;66.98;99393.03;5021313;28;20159;-82
2023/07/18 00:58:12;;;;;;;8.75;4.38;;;;;;;15.88;68.70;99400.06;5013397;28;20116;-81
2023/07/18 01:00:38;;;;;;;5.55;3.83;;;;;;;15.17;71.38;99390.22;5022665;28;20037;-82
2023/07/18 01:03:04;;;;;;;10.30;4.32;;;;;;;15.03;70.83;99381.84;5002185;28;20061;-81
2023/07/18 01:05:30;;;;;;;8.13;5.15;;;;;;;14.63;72.53;99395.94;5027589;28;20056;-81
2023/07/18 01:07:56;;;;;;;6.22;4.22;;;;;;;14.59;72.20;99394.81;5026150;28;20396;-81
2023/07/18 01:10:26;;;;;;;5.22;3.42;;;;;;;15.65;68.85;99389.81;5019490;28;20033;-81
2023/07/18 01:12:52;;;;;;;6.05;3.42;;;;;;;16.09;67.02;99393.59;5024129;28;20053;-81
2023/07/18 01:15:19;;;;;;;5.35;3.28;;;;;;;16.46;65.86;99399.47;5022340;28;20054;-81
2023/07/18 01:17:45;;;;;;;3.15;2.58;;;;;;;16.68;65.45;99401.06;5025505;28;20061;-81
2023/07/18 01:20:18;;;;;;;6.40;3.08;;;;;;;16.52;65.49;99383.31;5043076;28;20082;-81
2023/07/18 01:22:52;;;;;;;6.32;3.05;;;;;;;16.72;65.00;99394.03;5022584;28;20029;-81
2023/07/18 01:25:17;;;;;;;6.82;4.28;;;;;;;16.44;65.94;99392.75;5035046;28;20038;-81
2023/07/18 01:27:44;;;;;;;5.75;3.15;;;;;;;16.53;65.80;99393.00;5031586;28;20021;-81
2023/07/18 01:30:10;;;;;;;4.00;2.88;;;;;;;16.72;64.89;99385.94;5023848;28;20030;-82
2023/07/18 01:32:35;;;;;;;6.85;3.28;;;;;;;16.96;64.90;99400.41;5024953;28;20033;-82
2023/07/18 01:35:08;;;;;;;4.78;3.45;;;;;;;16.94;64.90;99405.28;5008701;28;20033;-82
2023/07/18 01:37:39;;;;;;;6.68;3.63;;;;;;;16.84;64.85;99389.16;5026543;28;20030;-82
2023/07/18 01:40:12;;;;;;;7.85;3.15;;;;;;;16.86;64.50;99400.47;5007391;28;20034;-81
2023/07/18 01:42:37;;;;;;;7.63;3.03;;;;;;;16.87;64.78;99394.78;5018592;28;20481;-81
2023/07/18 01:45:03;;;;;;;8.98;3.22;;;;;;;16.74;64.67;99389.97;5028577;28;20128;-81
2023/07/18 01:47:31;;;;;;;6.28;3.95;;;;;;;16.29;66.92;99398.16;5028281;28;20071;-81
2023/07/18 01:49:57;;;;;;;9.07;3.65;;;;;;;16.27;66.17;99397.63;5029933;28;20444;-81
2023/07/18 01:52:24;;;;;;;10.48;4.95;;;;;;;15.67;69.99;99387.66;5025929;28;20067;-81
2023/07/18 01:54:49;;;;;;;17.23;4.63;;;;;;;15.38;70.83;99394.56;5027091;28;20534;-81
2023/07/18 01:57:14;;;;;;;7.55;3.50;;;;;;;15.27;70.45;99371.41;5025259;28;20029;-81
2023/07/18 01:59:40;;;;;;;6.53;4.13;;;;;;;15.51;69.86;99396.78;5008859;28;20159;-81
2023/07/18 02:02:06;;;;;;;9.20;4.53;;;;;;;15.15;71.35;99373.56;5029456;28;20494;-81
2023/07/18 02:04:32;;;;;;;3.75;2.88;;;;;;;15.08;71.12;99394.50;4998311;28;20457;-81
2023/07/18 02:06:57;;;;;;;7.60;3.92;;;;;;;15.05;71.66;99386.97;5021647;28;20037;-81
2023/07/18 02:09:23;;;;;;;5.18;3.92;;;;;;;15.48;69.52;99378.50;5024097;28;20034;-81
2023/07/18 02:11:49;;;;;;;6.60;3.35;;;;;;;16.03;67.30;99388.50;5010961;28;20029;-81
2023/07/18 02:14:19;;;;;;;10.68;4.28;;;;;;;15.06;72.06;99377.81;5020888;28;20374;-81
2023/07/18 02:16:44;;;;;;;9.00;4.00;;;;;;;14.97;71.73;99397.16;5008485;28;20057;-81
2023/07/18 02:19:10;;;;;;;7.30;4.15;;;;;;;14.52;74.92;99383.53;5024151;28;20052;-81
2023/07/18 02:21:35;;;;;;;10.45;4.30;;;;;;;14.18;76.23;99382.19;4992467;28;20434;-81
2023/07/18 02:24:00;;;;;;;7.88;4.75;;;;;;;13.90;77.68;99387.91;5010624;28;20037;-81
2023/07/18 02:26:26;;;;;;;12.20;4.80;;;;;;;13.68;78.48;99396.03;5002537;28;20038;-81
2023/07/18 02:28:51;;;;;;;9.85;4.95;;;;;;;13.75;77.28;99382.41;5023878;28;20048;-80
2023/07/18 02:31:17;;;;;;;9.75;3.42;;;;;;;14.85;72.55;99387.72;5005817;28;20064;-81
2023/07/18 02:33:42;;;;;;;5.85;3.17;;;;;;;15.58;69.14;99391.97;4988702;28;20029;-81
2023/07/18 02:36:08;;;;;;;4.35;2.97;;;;;;;16.06;67.10;99388.75;5022586;28;20083;-81
2023/07/18 02:38:33;;;;;;;9.02;4.88;;;;;;;14.74;71.55;99375.31;5007619;28;20025;-81
2023/07/18 02:40:59;;;;;;;9.50;4.72;;;;;;;14.30;73.81;99393.59;5003566;28;20104;-81
2023/07/18 02:43:24;;;;;;;8.85;4.97;;;;;;;13.94;75.48;99387.13;5005337;28;20056;-81
2023/07/18 02:45:50;;;;;;;6.63;3.33;;;;;;;14.61;72.12;99379.25;5018397;28;20065;-81
2023/07/18 02:48:15;;;;;;;7.65;3.53;;;;;;;15.52;68.92;99382.28;5018390;28;20087;-81
2023/07/18 02:50:40;;;;;;;7.68;4.43;;;;;;;15.50;68.32;99366.41;5017086;28;21013;-81
2023/07/18 02:53:06;;;;;;;10.02;3.50;;;;;;;16.02;67.28;99386.88;5009062;28;20053;-81
2023/07/18 02:55:31;;;;;;;6.20;3.13;;;;;;;16.39;65.44;99381.97;5008807;28;21880;-81
2023/07/18 02:57:57;;;;;;;10.98;3.28;;;;;;;16.32;65.17;99381.44;5026759;28;20371;-81
2023/07/18 03:00:25;;;;;;;10.60;3.85;;;;;;;15.88;66.95;99391.97;5021301;28;20147;-81
2023/07/18 03:02:51;;;;;;;5.28;2.88;;;;;;;16.29;65.58;99376.59;5023387;28;20065;-81
2023/07/18 03:05:17;;;;;;;4.95;2.63;;;;;;;16.36;65.57;99383.31;5030046;28;20057;-81
2023/07/18 03:07:44;;;;;;;6.50;3.15;;;;;;;16.43;65.03;99394.63;5008368;28;20084;-81
2023/07/18 03:10:09;;;;;;;3.42;2.15;;;;;;;16.42;65.26;99390.28;5024886;28;20385;-81
2023/07/18 03:12:35;;;;;;;6.75;2.90;;;;;;;16.37;64.96;99403.81;5022308;28;20030;-81
2023/07/18 03:15:01;;;;;;;7.68;2.95;;;;;;;15.85;66.97;99399.78;5021390;28;20069;-81
2023/07/18 03:17:26;;;;;;;6.18;2.88;;;;;;;15.67;67.17;99395.75;5025829;28;20042;-81
2023/07/18 03:19:52;;;;;;;5.65;3.17;;;;;;;16.24;65.33;99396.28;5027069;28;20036;-81
2023/07/18 03:22:17;;;;;;;8.68;3.17;;;;;;;16.32;65.29;99395.72;5009946;28;20112;-81
2023/07/18 03:24:42;;;;;;;3.65;2.60;;;;;;;16.33;65.18;99404.63;5022109;28;20031;-81
2023/07/18 03:27:08;;;;;;;6.07;3.00;;;;;;;16.14;65.68;99400.88;5020798;28;21782;-81
2023/07/18 03:29:33;;;;;;;7.60;3.33;;;;;;;15.97;65.56;99403.81;5006367;28;20134;-81
2023/07/18 03:32:00;;;;;;;6.95;3.83;;;;;;;15.25;67.91;99408.53;5019228;28;20025;-81
2023/07/18 03:34:27;;;;;;;5.07;2.50;;;;;;;15.87;66.13;99406.53;5019785;28;20025;-81
2023/07/18 03:36:53;;;;;;;7.55;3.13;;;;;;;16.08;65.03;99385.78;5021587;28;20477;-81
2023/07/18 03:39:18;;;;;;;5.95;2.70;;;;;;;16.31;64.53;99398.69;5009858;28;20029;-82
2023/07/18 03:41:44;;;;;;;6.53;3.00;;;;;;;16.29;64.44;99392.78;5009734;28;20416;-82
2023/07/18 03:44:09;;;;;;;4.85;2.72;;;;;;;16.27;64.60;99401.09;5013285;28;20049;-82
2023/07/18 03:46:34;;;;;;;6.80;2.80;;;;;;;15.96;65.32;99409.50;4998004;28;20025;-81
2023/07/18 03:49:00;;;;;;;8.27;3.45;;;;;;;14.89;68.95;99395.00;5021278;28;20029;-81
2023/07/18 03:51:25;;;;;;;7.80;4.40;;;;;;;14.01;72.04;99390.41;5023798;28;20029;-81
2023/07/18 03:53:51;;;;;;;5.05;2.53;;;;;;;14.32;70.81;99386.09;5017010;28;20454;-81
2023/07/18 03:56:16;;;;;;;6.68;3.72;;;;;;;13.89;72.04;99395.13;5017685;28;20030;-81
2023/07/18 03:58:42;;;;;;;6.35;3.30;;;;;;;14.10;71.15;99396.13;5016060;28;20033;-81
2023/07/18 04:01:09;;;;;;;10.15;3.15;;;;;;;14.03;72.09;99379.41;5013866;28;20028;-81
2023/07/18 04:03:36;;;;;;;8.52;4.15;;;;;;;13.53;74.72;99390.53;5022563;28;20025;-81
2023/07/18 04:06:02;;;;;;;17.40;3.78;;;;;;;13.53;73.29;99391.34;5020111;28;20029;-81
2023/07/18 04:08:28;;;;;;;7.05;4.28;;;;;;;13.33;73.75;99356.28;5013680;28;20362;-81
2023/07/18 04:10:57;;;;;;;4.13;2.78;;;;;;;14.69;70.20;99376.09;5028654;28;20507;-82
2023/07/18 04:13:22;;;;;;;4.68;2.65;;;;;;;15.39;67.72;99390.84;5028700;28;20104;-81
2023/07/18 04:15:47;;;;;;;3.50;3.10;;;;;;;15.71;66.22;99391.44;5018976;28;20112;-82
2023/07/18 04:18:13;;;;;;;8.20;3.47;;;;;;;15.51;66.42;99376.06;5019138;28;20041;-81
2023/07/18 04:20:38;;;;;;;7.88;3.63;;;;;;;14.50;70.16;99380.31;5007179;28;20116;-82
2023/07/18 04:23:03;;;;;;;11.82;4.25;;;;;;;13.90;74.31;99390.59;5008118;28;20025;-81
2023/07/18 04:25:35;;;;;;;9.75;4.32;;;;;;;13.92;73.83;99381.22;5021103;28;20049;-81
2023/07/18 04:28:01;;;;;;;4.80;3.05;;;;;;;14.20;73.30;99394.31;5025079;28;20551;-81
2023/07/18 04:30:26;;;;;;;7.63;4.00;;;;;;;14.90;70.40;99380.47;5027438;28;20033;-81
2023/07/18 04:32:52;;;;;;;4.22;2.72;;;;;;;15.52;68.19;99387.66;5028659;28;20380;-81
2023/07/18 04:35:17;;;;;;;3.20;2.40;;;;;;;15.62;67.77;99371.50;5006859;28;20062;-81
2023/07/18 04:37:43;;;;;;;4.32;2.78;;;;;;;16.06;66.14;99374.47;5023213;28;20061;-81
2023/07/18 04:40:10;;;;;;;13.40;4.50;;;;;;;15.83;69.16;99366.94;5025586;28;20030;-81
2023/07/18 04:42:37;;;;;;;4.30;2.90;;;;;;;16.18;66.24;99365.03;5027549;28;20026;-81
2023/07/18 04:45:05;;;;;;;6.65;3.28;;;;;;;16.30;66.18;99373.63;5004840;28;20065;-80
2023/07/18 04:47:31;;;;;;;7.57;2.50;;;;;;;16.51;65.56;99382.53;5021652;28;20029;-81
2023/07/18 04:49:58;;;;;;;4.72;2.65;;;;;;;16.47;65.82;99373.31;5021905;28;20707;-80
2023/07/18 04:52:23;;;;;;;8.27;3.78;;;;;;;16.43;69.97;99385.72;5023675;28;20529;-81
2023/07/18 04:54:49;;;;;;;7.05;4.10;;;;;;;16.47;67.22;99389.47;5023586;28;20068;-81
2023/07/18 04:57:15;;;;;;;6.43;3.22;;;;;;;16.78;65.98;99390.22;5021467;28;20033;-82
2023/07/18 04:59:41;;;;;;;4.35;3.40;;;;;;;16.56;67.21;99387.88;5016781;28;20029;-81
2023/07/18 05:02:06;;;;;;;8.82;3.60;;;;;;;16.44;69.92;99398.94;5027719;28;20064;-81
2023/07/18 05:04:32;;;;;;;5.38;3.35;;;;;;;16.47;70.10;99394.88;5022785;28;20033;-81
2023/07/18 05:06:58;;;;;;;5.03;2.47;;;;;;;16.45;68.45;99381.69;5023715;28;20061;-81
2023/07/18 05:09:24;;;;;;;7.82;4.22;;;;;;;16.27;73.04;99384.94;5018102;28;20822;-82
2023/07/18 05:11:50;;;;;;;8.35;4.13;;;;;;;15.74;76.86;99389.03;5025680;28;20296;-81
2023/07/18 05:14:15;;;;;;;7.47;4.15;;;;;;;15.42;79.24;99401.06;5025546;28;20029;-81
2023/07/18 05:16:41;;;;;;;8.95;4.30;;;;;;;15.42;78.70;99382.25;5023047;28;20044;-81
2023/07/18 05:19:06;;;;;;;5.60;3.45;;;;;;;15.91;73.14;99404.09;5027820;28;20399;-82
2023/07/18 05:21:31;;;;;;;7.82;4.20;;;;;;;15.48;78.72;99400.03;5020130;28;20450;-81
2023/07/18 05:23:57;;;;;;;9.98;4.85;;;;;;;15.33;79.33;99386.53;5021820;28;20224;-81
2023/07/18 05:26:22;;;;;;;8.63;4.43;;;;;;;15.21;80.28;99391.31;5027970;28;20030;-81
2023/07/18 05:28:48;;;;;;;11.05;4.82;;;;;;;15.20;80.43;99400.47;5024616;28;20033;-81
2023/07/18 05:31:14;;;;;;;11.68;5.18;;;;;;;15.01;81.17;99390.19;5026134;28;20045;-81
2023/07/18 05:33:39;;;;;;;8.35;4.03;;;;;;;15.41;78.20;99394.88;5010159;28;20025;-81
2023/07/18 05:36:05;;;;;;;7.43;4.18;;;;;;;15.90;77.50;99389.03;5025233;28;20044;-81
2023/07/18 05:38:30;;;;;;;10.75;4.00;;;;;;;16.90;68.48;99364.59;5023813;28;20026;-81
2023/07/18 05:40:55;;;;;;;13.52;4.72;;;;;;;17.47;67.07;99377.47;5023855;28;20034;-81
2023/07/18 05:43:21;;;;;;;10.82;3.75;;;;;;;17.65;66.87;99379.53;5023699;28;20231;-82
2023/07/18 05:45:46;;;;;;;6.40;3.88;;;;;;;16.88;70.81;99369.44;5012241;28;20076;-82
2023/07/18 05:48:11;;;;;;;10.02;3.58;;;;;;;17.50;67.61;99373.41;5019259;28;20033;-81
2023/07/18 05:50:37;;;;;;;8.88;3.42;;;;;;;17.70;67.35;99390.28;5022029;28;20033;-81
2023/07/18 05:53:02;;;;;;;11.27;4.00;;;;;;;17.45;69.86;99390.44;5026815;28;20060;-82
2023/07/18 05:55:28;;;;;;;15.35;3.90;;;;;;;17.76;67.07;99388.34;5016160;28;20431;-82
2023/07/18 05:57:54;;;;;;;8.45;3.80;;;;;;;17.84;67.36;99398.56;5025084;28;20044;-82
2023/07/18 06:00:20;;;;;;;8.27;4.15;;;;;;;17.74;67.82;99387.84;4998219;28;20042;-82
2023/07/18 06:02:47;;;;;;;10.25;3.60;;;;;;;17.95;66.84;99390.09;5021108;28;20039;-82
2023/07/18 06:05:13;;;;;;;8.60;3.72;;;;;;;17.86;67.88;99372.09;5022932;28;20033;-82
2023/07/18 06:07:39;;;;;;;8.75;4.18;;;;;;;17.63;69.22;99389.81;5028704;28;20120;-82
2023/07/18 06:10:05;;;;;;;12.02;3.80;;;;;;;17.74;69.09;99391.34;5027811;28;20112;-81
2023/07/18 06:12:30;;;;;;;10.82;3.45;;;;;;;17.79;68.12;99390.50;4994499;28;20036;-81
2023/07/18 06:14:56;;;;;;;6.78;4.28;;;;;;;17.72;68.10;99395.41;5025737;28;20085;-81
2023/07/18 06:17:21;;;;;;;6.60;3.22;;;;;;;17.88;68.57;99397.72;5009362;28;20037;-81
2023/07/18 06:19:47;;;;;;;8.27;3.58;;;;;;;17.80;68.74;99392.91;5017926;28;20033;-82
2023/07/18 06:22:13;;;;;;;7.75;3.75;;;;;;;17.87;68.41;99404.19;5003135;28;20132;-81
2023/07/18 06:24:38;;;;;;;11.55;3.80;;;;;;;17.86;69.25;99408.00;5039995;28;20061;-82
2023/07/18 06:27:05;;;;;;;6.05;3.70;;;;;;;17.84;69.31;99404.75;5023790;28;20053;-82
2023/07/18 06:29:31;;;;;;;7.43;4.28;;;;;;;17.54;72.46;99404.19;5003121;28;20037;-82
2023/07/18 06:31:56;;;;;;;7.97;3.67;;;;;;;17.86;68.57;99391.81;5030399;28;20056;-82
2023/07/18 06:34:22;;;;;;;11.27;3.60;;;;;;;17.94;68.59;99395.78;5002671;28;20056;-81
2023/07/18 06:36:48;;;;;;;4.28;3.25;;;;;;;17.98;68.54;99394.94;5023342;28;20112;-82
2023/07/18 06:39:13;;;;;;;11.18;4.63;;;;;;;17.44;75.95;99394.22;5016881;28;20037;-81
2023/07/18 06:41:39;;;;;;;6.70;4.00;;;;;;;17.80;69.47;99398.31;5018405;28;20036;-81
2023/07/18 06:44:07;;;;;;;6.30;3.55;;;;;;;17.98;68.89;99389.53;5020142;28;20049;-82
2023/07/18 06:46:32;;;;;;;5.20;3.75;;;;;;;17.51;74.54;99391.25;5008631;28;20033;-81
2023/07/18 06:48:58;;;;;;;5.82;3.83;;;;;;;16.86;77.55;99327.66;5012417;28;20378;-81
2023/07/18 06:51:23;;;;;;;5.85;3.95;;;;;;;17.51;73.93;99383.16;5005792;28;20033;-82
2023/07/18 06:53:49;;;;;;;7.57;3.63;;;;;;;17.93;69.27;99369.88;5013767;28;20034;-82
2023/07/18 06:56:14;;;;;;;8.02;4.07;;;;;;;17.74;73.91;99390.53;4998978;28;20030;-82
2023/07/18 06:58:39;;;;;;;7.65;3.70;;;;;;;17.54;75.88;99377.97;4997241;28;20257;-82
2023/07/18 07:01:05;;;;;;;7.43;4.07;;;;;;;18.03;69.13;99379.75;4997529;28;20052;-82
2023/07/18 07:03:31;;;;;;;6.70;3.95;;;;;;;18.05;70.25;99374.88;5025494;28;20041;-82
2023/07/18 07:05:57;;;;;;;9.48;3.80;;;;;;;18.21;69.32;99374.47;5002398;28;20036;-82
2023/07/18 07:08:22;;;;;;;7.07;3.05;;;;;;;18.35;69.12;99388.09;5017954;28;20100;-82
2023/07/18 07:10:48;;;;;;;8.45;3.38;;;;;;;18.34;68.09;99373.00;4996339;28;20136;-81
2023/07/18 07:13:13;;;;;;;6.78;3.45;;;;;;;18.09;69.17;99375.91;5021140;28;20029;-82
2023/07/18 07:15:38;;;;;;;6.78;3.38;;;;;;;18.23;68.98;99379.59;5018745;28;20483;-82
2023/07/18 07:18:05;;;;;;;12.13;3.53;;;;;;;18.22;68.10;99377.97;4998079;28;20038;-82
2023/07/18 07:20:31;;;;;;;6.47;3.05;;;;;;;18.23;68.55;99379.59;5016570;28;20103;-82
2023/07/18 07:22:57;;;;;;;7.60;2.83;;;;;;;18.34;67.21;99362.19;5013744;28;20048;-82
2023/07/18 07:25:26;;;;;;;7.40;3.42;;;;;;;18.50;66.61;99363.66;5012143;28;20029;-82
2023/07/18 07:27:52;;;;;;;6.07;3.20;;;;;;;18.51;67.38;99367.97;5023107;28;20041;-82
2023/07/18 07:30:17;;;;;;;4.78;2.95;;;;;;;18.56;67.21;99376.03;5018749;28;20029;-82
2023/07/18 07:32:43;;;;;;;4.13;2.47;;;;;;;18.65;66.75;99369.69;5018666;28;20029;-82
2023/07/18 07:35:09;;;;;;;5.75;3.10;;;;;;;18.54;66.78;99373.59;5024727;28;20163;-82
2023/07/18 07:37:36;;;;;;;7.03;3.03;;;;;;;18.47;66.98;99356.13;5019340;28;20112;-82
2023/07/18 07:40:02;;;;;;;3.42;2.90;;;;;;;18.79;65.25;99366.28;5020863;28;20033;-80
2023/07/18 07:42:28;;;;;;;4.47;3.28;;;;;;;18.58;66.46;99357.63;5018829;28;20029;-81
2023/07/18 07:44:53;;;;;;;6.80;3.50;;;;;;;18.69;65.88;99356.41;5019849;28;20564;-81
2023/07/18 07:47:18;;;;;;;6.90;2.70;;;;;;;18.77;65.46;99363.06;5001095;28;20436;-80
2023/07/18 07:49:44;;;;;;;3.70;2.60;;;;;;;18.77;65.28;99357.66;5018655;28;20467;-81
2023/07/18 07:52:09;;;;;;;3.97;2.90;;;;;;;18.89;64.13;99355.34;5023894;28;20037;-81
2023/07/18 07:54:34;;;;;;;5.60;3.17;;;;;;;18.99;63.74;99345.19;5021660;28;20042;-81
2023/07/18 07:57:00;;;;;;;3.55;2.38;;;;;;;18.73;65.32;99324.19;5016203;28;20726;-81
2023/07/18 07:59:25;;;;;;;6.70;2.10;;;;;;;18.86;63.81;99328.88;5008242;28;20033;-80
2023/07/18 08:01:50;;;;;;;5.65;1.63;;;;;;;18.83;62.83;99343.00;5017745;28;20044;-80
2023/07/18 08:04:16;;;;;;;4.50;2.15;;;;;;;19.00;61.69;99324.38;5001538;28;20164;-80
2023/07/18 08:06:41;;;;;;;5.70;2.13;;;;;;;19.08;61.20;99318.28;5028579;28;20029;-80
2023/07/18 08:09:07;;;;;;;5.10;1.90;;;;;;;19.11;61.03;99321.22;5021530;28;20163;-80
2023/07/18 08:11:33;;;;;;;8.20;2.63;;;;;;;19.04;61.17;99319.97;5021100;28;20021;-80
2023/07/18 08:13:58;;;;;;;3.42;1.83;;;;;;;19.22;60.57;99324.59;4998472;28;20044;-80
2023/07/18 08:16:24;;;;;;;4.45;1.75;;;;;;;19.15;60.29;99307.91;5003879;28;20033;-80
2023/07/18 08:18:50;;;;;;;6.32;1.67;;;;;;;19.32;59.68;99309.00;5014914;28;20061;-80
2023/07/18 08:21:15;;;;;;;7.53;1.90;;;;;;;19.22;62.32;99311.06;5038089;28;20117;-80
2023/07/18 08:23:40;;;;;;;5.80;2.28;;;;;;;19.45;60.01;99321.03;5015886;28;20124;-80
2023/07/18 08:26:07;;;;;;;7.57;2.03;;;;;;;18.37;60.74;99302.16;5032736;28;20025;-80
2023/07/18 08:28:32;;;;;;;7.30;2.08;;;;;;;18.73;61.13;99297.13;5006110;28;21573;-80
2023/07/18 08:30:57;;;;;;;5.97;1.45;;;;;;;19.26;59.94;99301.25;5024731;28;20037;-80
2023/07/18 08:33:24;;;;;;;4.10;1.30;;;;;;;19.54;59.97;99311.13;5001059;28;20029;-80
2023/07/18 08:35:50;;;;;;;2.00;1.10;;;;;;;19.55;59.84;99295.69;5014017;28;20074;-79
2023/07/18 08:38:15;;;;;;;4.53;1.60;;;;;;;19.79;58.64;99302.56;5013684;28;20029;-80
2023/07/18 08:40:42;;;;;;;4.38;1.63;;;;;;;19.78;58.08;99289.34;5014967;28;20080;-79
2023/07/18 08:43:13;;;;;;;4.35;1.88;;;;;;;19.74;57.50;99286.44;5014814;28;20029;-79
2023/07/18 08:45:39;;;;;;;5.15;1.70;;;;;;;19.88;58.29;99291.84;5004788;28;20033;-80
2023/07/18 08:48:05;;;;;;;3.13;1.52;;;;;;;19.69;57.16;99272.97;5013313;28;20025;-79
2023/07/18 08:50:31;;;;;;;3.47;1.20;;;;;;;19.91;57.52;99275.81;5011866;28;20037;-79
2023/07/18 08:52:57;;;;;;;2.03;1.38;;;;;;;20.00;57.16;99274.03;5008942;28;20476;-79
2023/07/18 08:55:22;;;;;;;5.57;1.30;;;;;;;20.08;56.74;99284.16;5013183;28;20031;-79
2023/07/18 08:57:50;;;;;;;3.60;1.13;;;;;;;20.12;56.66;99277.03;5009746;28;20045;-79
2023/07/18 09:00:20;;;;;;;3.15;1.58;;;;;;;20.32;55.99;99269.66;5011450;28;20033;-79
2023/07/18 09:02:48;;;;;;;5.13;1.63;;;;;;;20.22;57.20;99283.41;5012112;28;20025;-79
2023/07/18 09:05:34;;;;;;;3.20;1.50;;;;;;;20.35;58.73;99274.47;5009365;28;20068;-80
2023/07/18 09:08:00;;;;;;;4.47;1.50;;;;;;;20.39;55.27;99276.28;5019867;28;20029;-79
2023/07/18 09:10:26;;;;;;;6.53;2.05;;;;;;;20.63;54.30;99260.59;5023510;28;20037;-79
2023/07/18 09:12:52;;;;;;;5.78;1.92;;;;;;;20.54;55.68;99267.84;5024830;28;20049;-79
2023/07/18 09:15:21;;;;;;;3.28;1.80;;;;;;;20.67;54.97;99247.22;5025674;28;20053;-79
2023/07/18 09:17:57;;;;;;;13.10;2.08;;;;;;;20.86;55.31;99256.81;5031171;28;20484;-79
2023/07/18 09:20:25;;;;;;;5.15;1.80;;;;;;;20.96;55.23;99263.94;5026047;28;20029;-79
2023/07/18 09:22:56;;;;;;;4.93;1.67;;;;;;;20.73;55.56;99248.69;5019284;28;20609;-79
2023/07/18 09:25:22;;;;;;;3.40;1.52;;;;;;;21.05;55.08;99255.91;5004256;28;20034;-79
2023/07/18 09:27:50;;;;;;;5.55;1.77;;;;;;;21.01;55.67;99263.03;5021237;28;20041;-79
2023/07/18 09:30:27;;;;;;;3.50;1.50;;;;;;;21.25;54.57;99252.72;5014516;28;20033;-79
2023/07/18 09:32:53;;;;;;;4.82;2.22;;;;;;;21.11;56.16;99250.03;5024347;28;20049;-79
2023/07/18 09:35:19;;;;;;;2.55;1.65;;;;;;;21.27;55.16;99258.63;5023441;28;20067;-80
2023/07/18 09:37:48;;;;;;;4.50;1.77;;;;;;;21.26;55.62;99251.59;5022286;28;20061;-79
2023/07/18 09:40:16;;;;;;;3.85;1.63;;;;;;;21.43;54.75;99241.66;5025235;28;20071;-79
2023/07/18 09:42:46;;;;;;;5.00;2.03;;;;;;;21.69;54.29;99244.53;5006196;28;21892;-79
2023/07/18 09:45:16;;;;;;;4.65;1.60;;;;;;;21.75;53.69;99246.00;5000366;28;20389;-79
2023/07/18 09:47:43;;;;;;;3.58;1.42;;;;;;;21.74;55.81;99254.47;5014283;28;20116;-79
2023/07/18 09:50:13;;;;;;;7.35;1.83;;;;;;;21.79;54.71;99240.75;5019280;28;20033;-80
2023/07/18 09:52:47;;;;;;;7.00;2.42;;;;;;;21.96;53.77;99236.22;5012370;28;20038;-80
2023/07/18 09:55:14;;;;;;;6.60;1.90;;;;;;;21.87;53.67;99238.09;5020349;28;20029;-80
2023/07/18 09:57:42;;;;;;;5.78;2.15;;;;;;;21.95;56.44;99239.28;5014879;28;20420;-79
2023/07/18 10:00:11;;;;;;;6.65;2.45;;;;;;;21.83;56.23;99228.16;5018038;28;20033;-79
2023/07/18 10:02:38;;;;;;;4.32;1.85;;;;;;;21.96;53.25;99222.63;5023230;28;20021;-80
2023/07/18 10:05:05;;;;;;;8.48;3.30;;;;;;;22.26;53.45;99235.38;5003997;28;20029;-80
2023/07/18 10:07:34;;;;;;;3.63;1.77;;;;;;;22.49;52.35;99224.41;5018397;28;20044;-80
2023/07/18 10:10:01;;;;;;;4.00;2.00;;;;;;;22.33;52.51;99202.28;5019762;28;20032;-80
2023/07/18 10:12:27;;;;;;;5.53;1.95;;;;;;;22.24;52.64;99217.75;5015884;28;20026;-80
2023/07/18 10:14:57;;;;;;;3.25;1.83;;;;;;;22.41;52.71;99206.16;5017547;28;21869;-80
2023/07/18 10:17:41;;;;;;;2.90;1.58;;;;;;;22.80;51.78;99206.06;5019338;28;20033;-80
2023/07/18 10:20:35;;;;;;;5.00;2.00;;;;;;;22.74;52.47;99199.16;5028404;28;20586;-79
2023/07/18 10:23:01;;;;;;;6.18;2.50;;;;;;;22.78;53.26;99205.59;5009688;28;20053;-79
2023/07/18 10:25:31;;;;;;;3.70;2.15;;;;;;;21.99;51.69;99194.03;5013759;28;20041;-80
2023/07/18 10:27:58;;;;;;;4.47;1.73;;;;;;;22.46;52.42;99184.22;5016616;28;20083;-80
2023/07/18 10:30:24;;;;;;;7.72;2.53;;;;;;;22.86;51.73;99172.94;5023789;28;20025;-79
2023/07/18 10:32:51;;;;;;;7.13;1.77;;;;;;;23.20;51.20;99179.47;5028616;28;20117;-79
2023/07/18 10:35:21;;;;;;;2.42;1.77;;;;;;;23.31;50.92;99172.53;5005982;28;20055;-80
2023/07/18 10:37:58;;;;;;;3.70;1.98;;;;;;;23.39;50.23;99188.13;5003738;28;20075;-79
2023/07/18 10:40:31;;;;;;;4.07;1.52;;;;;;;23.39;48.61;99179.94;5015969;28;20122;-79
2023/07/18 10:42:57;;;;;;;6.13;1.80;;;;;;;23.56;49.77;99177.16;5015873;28;20022;-79
2023/07/18 10:45:22;;;;;;;3.47;1.77;;;;;;;23.66;49.85;99188.50;5014911;28;20037;-80
2023/07/18 10:47:47;;;;;;;2.60;1.90;;;;;;;23.73;49.69;99177.09;5020062;28;20444;-80
2023/07/18 10:50:14;;;;;;;4.05;1.60;;;;;;;23.76;49.49;99177.25;5021464;28;20040;-80
2023/07/18 10:52:40;;;;;;;4.10;1.90;;;;;;;23.94;49.07;99175.25;5023495;28;20131;-80
2023/07/18 10:55:07;;;;;;;4.20;1.63;;;;;;;24.08;47.97;99180.50;5021735;28;20033;-80
2023/07/18 10:57:34;;;;;;;1.90;1.58;;;;;;;24.20;47.62;99170.47;5018593;28;21454;-79
2023/07/18 11:00:03;;;;;;;4.28;2.03;;;;;;;24.34;47.56;99167.50;5000867;28;20057;-80
2023/07/18 11:02:38;;;;;;;4.90;1.42;;;;;;;24.48;47.48;99173.53;5004814;28;20196;-80
2023/07/18 11:05:11;;;;;;;2.53;1.80;;;;;;;24.70;46.96;99172.41;5016860;28;20469;-80
2023/07/18 11:07:42;;;;;;;4.93;2.00;;;;;;;24.74;47.18;99185.06;5017343;28;20107;-80
2023/07/18 11:10:09;;;;;;;5.95;2.28;;;;;;;24.84;46.77;99162.84;5014868;28;20025;-80
2023/07/18 11:12:34;;;;;;;2.05;1.40;;;;;;;25.06;46.36;99184.34;5016866;28;20021;-80
2023/07/18 11:14:59;;;;;;;2.50;1.92;;;;;;;25.09;46.52;99182.88;5017637;28;20037;-80
2023/07/18 11:17:25;;;;;;;4.65;2.03;;;;;;;24.83;45.69;99176.84;5017913;28;20031;-80
2023/07/18 11:19:55;;;;;;;1.70;1.60;;;;;;;24.96;45.96;99190.22;5023938;28;20554;-80
2023/07/18 11:22:21;;;;;;;15.52;2.65;;;;;;;24.86;45.48;99176.97;5026094;28;20049;-80
2023/07/18 11:24:47;;;;;;;2.38;1.48;;;;;;;25.00;45.74;99176.69;5019360;28;20037;-80
2023/07/18 11:27:23;;;;;;;3.50;2.03;;;;;;;24.80;46.25;99161.91;5004863;28;20456;-80
2023/07/18 11:29:57;;;;;;;4.18;1.67;;;;;;;24.83;45.95;99169.44;5021581;28;20021;-79